sensor_id;sensor_type;location;lat;lon;timestamp;P1;durP1;ratioP1;P2;durP2;ratioP2
54197;SDS011;40105;52.366;17.000;2022-12-07T00:01:04;38.42;;;12.00;;
54197;SDS011;40105;52.366;17.000;2022-12-07T00:03:30;42.85;;;14.57;;
54197;SDS011;40105;52.366;17.000;2022-12-07T00:05:57;38.05;;;12.93;;
54197;SDS011;40105;52.366;17.000;2022-12-07T00:08:22;36.80;;;12.85;;
54197;SDS011;40105;52.366;17.000;2022-12-07T00:10:47;37.80;;;12.80;;
54197;SDS011;40105;52.366;17.000;2022-12-07T00:13:12;21.90;;;10.43;;
54197;SDS011;40105;52.366;17.000;2022-12-07T00:15:38;32.42;;;14.00;;
54197;SDS011;40105;52.366;17.000;2022-12-07T00:18:03;31.67;;;12.40;;
54197;SDS011;40105;52.366;17.000;2022-12-07T00:20:28;36.47;;;13.57;;
54197;SDS011;40105;52.366;17.000;2022-12-07T00:22:53;42.83;;;13.67;;
54197;SDS011;40105;52.366;17.000;2022-12-07T00:25:18;26.85;;;8.80;;
54197;SDS011;40105;52.366;17.000;2022-12-07T00:27:43;28.93;;;9.77;;
54197;SDS011;40105;52.366;17.000;2022-12-07T00:30:09;34.33;;;11.77;;
54197;SDS011;40105;52.366;17.000;2022-12-07T00:32:34;26.80;;;11.63;;
54197;SDS011;40105;52.366;17.000;2022-12-07T00:34:59;29.57;;;9.20;;
54197;SDS011;40105;52.366;17.000;2022-12-07T00:37:24;32.47;;;12.13;;
54197;SDS011;40105;52.366;17.000;2022-12-07T00:39:49;43.10;;;14.27;;
54197;SDS011;40105;52.366;17.000;2022-12-07T00:42:15;30.20;;;11.33;;
54197;SDS011;40105;52.366;17.000;2022-12-07T00:44:40;51.60;;;14.23;;
54197;SDS011;40105;52.366;17.000;2022-12-07T00:47:05;33.40;;;14.20;;
54197;SDS011;40105;52.366;17.000;2022-12-07T00:49:30;29.37;;;8.23;;
54197;SDS011;40105;52.366;17.000;2022-12-07T00:51:55;32.30;;;12.83;;
54197;SDS011;40105;52.366;17.000;2022-12-07T00:54:20;35.67;;;12.15;;
54197;SDS011;40105;52.366;17.000;2022-12-07T00:56:45;23.43;;;8.67;;
54197;SDS011;40105;52.366;17.000;2022-12-07T00:59:12;26.10;;;11.80;;
54197;SDS011;40105;52.366;17.000;2022-12-07T01:01:38;27.88;;;9.73;;
54197;SDS011;40105;52.366;17.000;2022-12-07T01:04:03;33.47;;;12.93;;
54197;SDS011;40105;52.366;17.000;2022-12-07T01:06:29;26.80;;;11.48;;
54197;SDS011;40105;52.366;17.000;2022-12-07T01:08:55;37.72;;;13.18;;
54197;SDS011;40105;52.366;17.000;2022-12-07T01:11:21;38.23;;;11.90;;
54197;SDS011;40105;52.366;17.000;2022-12-07T01:13:46;31.85;;;11.23;;
54197;SDS011;40105;52.366;17.000;2022-12-07T01:16:14;26.27;;;9.85;;
54197;SDS011;40105;52.366;17.000;2022-12-07T01:18:40;35.70;;;11.15;;
54197;SDS011;40105;52.366;17.000;2022-12-07T01:21:06;34.10;;;11.30;;
54197;SDS011;40105;52.366;17.000;2022-12-07T01:23:32;34.97;;;12.25;;
54197;SDS011;40105;52.366;17.000;2022-12-07T01:25:57;41.45;;;16.25;;
54197;SDS011;40105;52.366;17.000;2022-12-07T01:28:23;20.73;;;8.38;;
54197;SDS011;40105;52.366;17.000;2022-12-07T01:30:58;32.13;;;9.55;;
54197;SDS011;40105;52.366;17.000;2022-12-07T01:33:23;50.70;;;18.70;;
54197;SDS011;40105;52.366;17.000;2022-12-07T01:35:49;36.50;;;14.93;;
54197;SDS011;40105;52.366;17.000;2022-12-07T01:38:14;39.27;;;13.80;;
54197;SDS011;40105;52.366;17.000;2022-12-07T01:40:39;22.67;;;8.47;;
54197;SDS011;40105;52.366;17.000;2022-12-07T01:43:09;41.33;;;14.13;;
54197;SDS011;40105;52.366;17.000;2022-12-07T01:45:41;42.05;;;12.60;;
54197;SDS011;40105;52.366;17.000;2022-12-07T01:48:07;45.03;;;15.13;;
54197;SDS011;40105;52.366;17.000;2022-12-07T01:50:34;44.75;;;13.93;;
54197;SDS011;40105;52.366;17.000;2022-12-07T01:53:00;25.63;;;9.13;;
54197;SDS011;40105;52.366;17.000;2022-12-07T01:55:27;42.35;;;14.43;;
54197;SDS011;40105;52.366;17.000;2022-12-07T01:57:52;39.27;;;13.37;;
54197;SDS011;40105;52.366;17.000;2022-12-07T02:00:18;41.13;;;13.63;;
54197;SDS011;40105;52.366;17.000;2022-12-07T02:02:46;37.58;;;14.15;;
54197;SDS011;40105;52.366;17.000;2022-12-07T02:05:12;40.08;;;13.13;;
54197;SDS011;40105;52.366;17.000;2022-12-07T02:07:38;32.30;;;11.88;;
54197;SDS011;40105;52.366;17.000;2022-12-07T02:10:16;13.20;;;4.72;;
54197;SDS011;40105;52.366;17.000;2022-12-07T02:12:42;37.33;;;13.43;;
54197;SDS011;40105;52.366;17.000;2022-12-07T02:15:09;40.53;;;12.90;;
54197;SDS011;40105;52.366;17.000;2022-12-07T02:20:11;33.97;;;13.38;;
54197;SDS011;40105;52.366;17.000;2022-12-07T02:22:47;26.30;;;9.25;;
54197;SDS011;40105;52.366;17.000;2022-12-07T02:30:23;31.73;;;12.70;;
54197;SDS011;40105;52.366;17.000;2022-12-07T02:33:06;33.88;;;10.65;;
54197;SDS011;40105;52.366;17.000;2022-12-07T02:35:33;38.45;;;11.77;;
54197;SDS011;40105;52.366;17.000;2022-12-07T02:40:48;25.65;;;11.00;;
54197;SDS011;40105;52.366;17.000;2022-12-07T02:43:16;26.00;;;10.88;;
54197;SDS011;40105;52.366;17.000;2022-12-07T02:45:43;32.30;;;10.55;;
54197;SDS011;40105;52.366;17.000;2022-12-07T02:48:10;24.88;;;11.13;;
54197;SDS011;40105;52.366;17.000;2022-12-07T02:50:37;25.52;;;10.43;;
54197;SDS011;40105;52.366;17.000;2022-12-07T02:53:02;33.40;;;13.52;;
54197;SDS011;40105;52.366;17.000;2022-12-07T02:55:29;36.90;;;11.43;;
54197;SDS011;40105;52.366;17.000;2022-12-07T02:58:03;33.33;;;13.70;;
54197;SDS011;40105;52.366;17.000;2022-12-07T03:00:31;27.10;;;9.73;;
54197;SDS011;40105;52.366;17.000;2022-12-07T03:03:00;33.78;;;11.70;;
54197;SDS011;40105;52.366;17.000;2022-12-07T03:08:21;33.45;;;14.48;;
54197;SDS011;40105;52.366;17.000;2022-12-07T03:10:58;34.58;;;12.70;;
54197;SDS011;40105;52.366;17.000;2022-12-07T03:18:21;30.52;;;10.55;;
54197;SDS011;40105;52.366;17.000;2022-12-07T03:20:48;28.38;;;11.50;;
54197;SDS011;40105;52.366;17.000;2022-12-07T03:23:15;31.23;;;12.60;;
54197;SDS011;40105;52.366;17.000;2022-12-07T03:25:41;28.27;;;11.52;;
54197;SDS011;40105;52.366;17.000;2022-12-07T03:28:08;34.28;;;11.27;;
54197;SDS011;40105;52.366;17.000;2022-12-07T03:30:37;30.70;;;12.27;;
54197;SDS011;40105;52.366;17.000;2022-12-07T03:33:07;31.98;;;11.20;;
54197;SDS011;40105;52.366;17.000;2022-12-07T03:35:37;28.00;;;12.48;;
54197;SDS011;40105;52.366;17.000;2022-12-07T03:38:17;24.92;;;11.80;;
54197;SDS011;40105;52.366;17.000;2022-12-07T03:40:44;27.58;;;8.40;;
54197;SDS011;40105;52.366;17.000;2022-12-07T03:43:14;26.58;;;11.18;;
54197;SDS011;40105;52.366;17.000;2022-12-07T03:48:15;27.50;;;11.20;;
54197;SDS011;40105;52.366;17.000;2022-12-07T03:50:48;23.85;;;9.32;;
54197;SDS011;40105;52.366;17.000;2022-12-07T03:53:18;27.45;;;10.60;;
54197;SDS011;40105;52.366;17.000;2022-12-07T03:55:44;21.85;;;10.07;;
54197;SDS011;40105;52.366;17.000;2022-12-07T03:58:12;28.45;;;10.40;;
54197;SDS011;40105;52.366;17.000;2022-12-07T04:00:39;23.60;;;9.98;;
54197;SDS011;40105;52.366;17.000;2022-12-07T04:03:05;18.77;;;9.40;;
54197;SDS011;40105;52.366;17.000;2022-12-07T04:05:30;22.97;;;9.70;;
54197;SDS011;40105;52.366;17.000;2022-12-07T04:07:55;18.07;;;8.27;;
54197;SDS011;40105;52.366;17.000;2022-12-07T04:10:20;24.30;;;10.20;;
54197;SDS011;40105;52.366;17.000;2022-12-07T04:12:46;20.75;;;9.13;;
54197;SDS011;40105;52.366;17.000;2022-12-07T04:15:11;23.57;;;9.53;;
54197;SDS011;40105;52.366;17.000;2022-12-07T04:17:36;21.67;;;10.17;;
54197;SDS011;40105;52.366;17.000;2022-12-07T04:20:02;23.03;;;10.17;;
54197;SDS011;40105;52.366;17.000;2022-12-07T04:22:28;29.83;;;13.20;;
54197;SDS011;40105;52.366;17.000;2022-12-07T04:24:54;19.47;;;8.23;;
54197;SDS011;40105;52.366;17.000;2022-12-07T04:27:19;28.63;;;10.77;;
54197;SDS011;40105;52.366;17.000;2022-12-07T04:29:44;33.67;;;10.97;;
54197;SDS011;40105;52.366;17.000;2022-12-07T04:32:09;28.33;;;12.70;;
54197;SDS011;40105;52.366;17.000;2022-12-07T04:34:34;23.77;;;11.70;;
54197;SDS011;40105;52.366;17.000;2022-12-07T04:36:59;35.40;;;10.90;;
54197;SDS011;40105;52.366;17.000;2022-12-07T04:39:28;24.73;;;10.93;;
54197;SDS011;40105;52.366;17.000;2022-12-07T04:41:54;27.63;;;11.80;;
54197;SDS011;40105;52.366;17.000;2022-12-07T04:44:19;28.40;;;11.88;;
54197;SDS011;40105;52.366;17.000;2022-12-07T04:46:45;24.42;;;11.68;;
54197;SDS011;40105;52.366;17.000;2022-12-07T04:49:11;29.38;;;13.65;;
54197;SDS011;40105;52.366;17.000;2022-12-07T04:51:36;39.05;;;13.32;;
54197;SDS011;40105;52.366;17.000;2022-12-07T04:54:01;19.73;;;10.20;;
54197;SDS011;40105;52.366;17.000;2022-12-07T04:56:27;15.67;;;8.53;;
54197;SDS011;40105;52.366;17.000;2022-12-07T04:58:52;26.97;;;11.20;;
54197;SDS011;40105;52.366;17.000;2022-12-07T05:01:18;31.00;;;12.30;;
54197;SDS011;40105;52.366;17.000;2022-12-07T05:03:43;37.00;;;14.35;;
54197;SDS011;40105;52.366;17.000;2022-12-07T05:06:09;38.45;;;11.52;;
54197;SDS011;40105;52.366;17.000;2022-12-07T05:08:35;31.85;;;12.63;;
54197;SDS011;40105;52.366;17.000;2022-12-07T05:11:01;33.53;;;14.80;;
54197;SDS011;40105;52.366;17.000;2022-12-07T05:13:26;22.02;;;10.15;;
54197;SDS011;40105;52.366;17.000;2022-12-07T05:15:52;30.85;;;14.32;;
54197;SDS011;40105;52.366;17.000;2022-12-07T05:18:17;29.53;;;15.47;;
54197;SDS011;40105;52.366;17.000;2022-12-07T05:20:42;29.53;;;15.10;;
54197;SDS011;40105;52.366;17.000;2022-12-07T05:23:07;40.65;;;18.60;;
54197;SDS011;40105;52.366;17.000;2022-12-07T05:25:33;29.57;;;13.87;;
54197;SDS011;40105;52.366;17.000;2022-12-07T05:27:58;26.90;;;12.67;;
54197;SDS011;40105;52.366;17.000;2022-12-07T05:30:23;35.90;;;15.70;;
54197;SDS011;40105;52.366;17.000;2022-12-07T05:32:49;51.83;;;24.10;;
54197;SDS011;40105;52.366;17.000;2022-12-07T05:35:14;47.47;;;23.10;;
54197;SDS011;40105;52.366;17.000;2022-12-07T05:37:39;36.00;;;17.30;;
54197;SDS011;40105;52.366;17.000;2022-12-07T05:40:04;30.10;;;15.33;;
54197;SDS011;40105;52.366;17.000;2022-12-07T05:42:30;25.73;;;12.95;;
54197;SDS011;40105;52.366;17.000;2022-12-07T05:44:55;28.13;;;12.47;;
54197;SDS011;40105;52.366;17.000;2022-12-07T05:47:20;26.90;;;13.90;;
54197;SDS011;40105;52.366;17.000;2022-12-07T05:49:45;25.63;;;11.97;;
54197;SDS011;40105;52.366;17.000;2022-12-07T05:52:10;28.20;;;13.07;;
54197;SDS011;40105;52.366;17.000;2022-12-07T05:54:36;33.65;;;13.05;;
54197;SDS011;40105;52.366;17.000;2022-12-07T05:57:01;18.90;;;8.77;;
54197;SDS011;40105;52.366;17.000;2022-12-07T05:59:26;20.17;;;9.63;;
54197;SDS011;40105;52.366;17.000;2022-12-07T06:01:57;34.05;;;13.60;;
54197;SDS011;40105;52.366;17.000;2022-12-07T06:04:23;29.73;;;11.55;;
54197;SDS011;40105;52.366;17.000;2022-12-07T06:06:48;27.88;;;14.13;;
54197;SDS011;40105;52.366;17.000;2022-12-07T06:09:15;28.08;;;13.15;;
54197;SDS011;40105;52.366;17.000;2022-12-07T06:11:40;27.83;;;12.75;;
54197;SDS011;40105;52.366;17.000;2022-12-07T06:14:25;27.52;;;11.07;;
54197;SDS011;40105;52.366;17.000;2022-12-07T06:16:50;30.53;;;13.17;;
54197;SDS011;40105;52.366;17.000;2022-12-07T06:19:15;21.73;;;10.87;;
54197;SDS011;40105;52.366;17.000;2022-12-07T06:21:41;21.70;;;9.15;;
54197;SDS011;40105;52.366;17.000;2022-12-07T06:24:06;27.77;;;14.10;;
54197;SDS011;40105;52.366;17.000;2022-12-07T06:26:31;29.85;;;14.00;;
54197;SDS011;40105;52.366;17.000;2022-12-07T06:28:57;29.33;;;11.33;;
54197;SDS011;40105;52.366;17.000;2022-12-07T06:31:22;25.00;;;11.07;;
54197;SDS011;40105;52.366;17.000;2022-12-07T06:33:47;27.00;;;11.77;;
54197;SDS011;40105;52.366;17.000;2022-12-07T06:36:12;20.20;;;10.47;;
54197;SDS011;40105;52.366;17.000;2022-12-07T06:38:37;22.58;;;11.13;;
54197;SDS011;40105;52.366;17.000;2022-12-07T06:41:03;24.33;;;10.97;;
54197;SDS011;40105;52.366;17.000;2022-12-07T06:43:28;26.13;;;12.17;;
54197;SDS011;40105;52.366;17.000;2022-12-07T06:45:53;26.50;;;11.43;;
54197;SDS011;40105;52.366;17.000;2022-12-07T06:48:18;27.33;;;11.93;;
54197;SDS011;40105;52.366;17.000;2022-12-07T06:50:44;37.30;;;14.10;;
54197;SDS011;40105;52.366;17.000;2022-12-07T06:53:09;32.40;;;12.15;;
54197;SDS011;40105;52.366;17.000;2022-12-07T06:55:34;32.47;;;11.23;;
54197;SDS011;40105;52.366;17.000;2022-12-07T06:58:00;18.20;;;8.87;;
54197;SDS011;40105;52.366;17.000;2022-12-07T07:00:26;24.50;;;11.18;;
54197;SDS011;40105;52.366;17.000;2022-12-07T07:02:51;24.57;;;11.87;;
54197;SDS011;40105;52.366;17.000;2022-12-07T07:05:16;30.20;;;11.27;;
54197;SDS011;40105;52.366;17.000;2022-12-07T07:07:42;33.22;;;12.27;;
54197;SDS011;40105;52.366;17.000;2022-12-07T07:10:07;26.70;;;11.50;;
54197;SDS011;40105;52.366;17.000;2022-12-07T07:12:32;23.88;;;10.77;;
54197;SDS011;40105;52.366;17.000;2022-12-07T07:14:57;15.17;;;7.33;;
54197;SDS011;40105;52.366;17.000;2022-12-07T07:17:23;17.10;;;8.30;;
54197;SDS011;40105;52.366;17.000;2022-12-07T07:19:48;25.10;;;9.63;;
54197;SDS011;40105;52.366;17.000;2022-12-07T07:22:13;21.80;;;10.47;;
54197;SDS011;40105;52.366;17.000;2022-12-07T07:24:38;22.80;;;10.63;;
54197;SDS011;40105;52.366;17.000;2022-12-07T07:27:04;19.10;;;9.37;;
54197;SDS011;40105;52.366;17.000;2022-12-07T07:29:29;15.50;;;7.53;;
54197;SDS011;40105;52.366;17.000;2022-12-07T07:31:54;27.43;;;9.07;;
54197;SDS011;40105;52.366;17.000;2022-12-07T07:34:19;21.10;;;7.27;;
54197;SDS011;40105;52.366;17.000;2022-12-07T07:36:44;9.93;;;5.10;;
54197;SDS011;40105;52.366;17.000;2022-12-07T07:39:10;20.53;;;7.33;;
54197;SDS011;40105;52.366;17.000;2022-12-07T07:41:37;20.48;;;8.13;;
54197;SDS011;40105;52.366;17.000;2022-12-07T07:44:02;20.10;;;8.30;;
54197;SDS011;40105;52.366;17.000;2022-12-07T07:46:27;20.27;;;8.33;;
54197;SDS011;40105;52.366;17.000;2022-12-07T07:48:53;19.33;;;8.90;;
54197;SDS011;40105;52.366;17.000;2022-12-07T07:51:18;20.77;;;8.33;;
54197;SDS011;40105;52.366;17.000;2022-12-07T07:53:43;14.43;;;6.07;;
54197;SDS011;40105;52.366;17.000;2022-12-07T07:56:08;14.27;;;7.50;;
54197;SDS011;40105;52.366;17.000;2022-12-07T07:58:33;18.27;;;7.07;;
54197;SDS011;40105;52.366;17.000;2022-12-07T08:01:08;27.30;;;9.57;;
54197;SDS011;40105;52.366;17.000;2022-12-07T08:03:33;18.13;;;7.50;;
54197;SDS011;40105;52.366;17.000;2022-12-07T08:05:58;19.80;;;7.65;;
54197;SDS011;40105;52.366;17.000;2022-12-07T08:08:24;14.02;;;6.78;;
54197;SDS011;40105;52.366;17.000;2022-12-07T08:10:49;16.15;;;6.55;;
54197;SDS011;40105;52.366;17.000;2022-12-07T08:13:15;27.67;;;10.30;;
54197;SDS011;40105;52.366;17.000;2022-12-07T08:15:41;15.05;;;6.95;;
54197;SDS011;40105;52.366;17.000;2022-12-07T08:18:07;14.57;;;4.78;;
54197;SDS011;40105;52.366;17.000;2022-12-07T08:20:33;22.17;;;7.55;;
54197;SDS011;40105;52.366;17.000;2022-12-07T08:22:58;40.08;;;11.82;;
54197;SDS011;40105;52.366;17.000;2022-12-07T08:25:24;26.02;;;9.13;;
54197;SDS011;40105;52.366;17.000;2022-12-07T08:27:49;31.90;;;12.23;;
54197;SDS011;40105;52.366;17.000;2022-12-07T08:30:15;31.67;;;12.10;;
54197;SDS011;40105;52.366;17.000;2022-12-07T08:32:40;27.17;;;11.73;;
54197;SDS011;40105;52.366;17.000;2022-12-07T08:35:06;25.02;;;11.20;;
54197;SDS011;40105;52.366;17.000;2022-12-07T08:37:31;13.82;;;5.55;;
54197;SDS011;40105;52.366;17.000;2022-12-07T08:39:57;20.73;;;8.40;;
54197;SDS011;40105;52.366;17.000;2022-12-07T08:42:22;27.27;;;10.17;;
54197;SDS011;40105;52.366;17.000;2022-12-07T08:44:52;32.92;;;10.93;;
54197;SDS011;40105;52.366;17.000;2022-12-07T08:47:17;30.90;;;11.83;;
54197;SDS011;40105;52.366;17.000;2022-12-07T08:49:43;24.40;;;9.25;;
54197;SDS011;40105;52.366;17.000;2022-12-07T08:52:10;15.68;;;7.72;;
54197;SDS011;40105;52.366;17.000;2022-12-07T08:54:36;24.43;;;10.63;;
54197;SDS011;40105;52.366;17.000;2022-12-07T08:57:03;26.75;;;11.13;;
54197;SDS011;40105;52.366;17.000;2022-12-07T08:59:28;25.42;;;10.98;;
54197;SDS011;40105;52.366;17.000;2022-12-07T09:01:53;33.30;;;12.93;;
54197;SDS011;40105;52.366;17.000;2022-12-07T09:04:19;24.85;;;11.65;;
54197;SDS011;40105;52.366;17.000;2022-12-07T09:06:45;12.93;;;5.35;;
54197;SDS011;40105;52.366;17.000;2022-12-07T09:09:10;46.53;;;11.23;;
54197;SDS011;40105;52.366;17.000;2022-12-07T09:11:36;31.20;;;12.00;;
54197;SDS011;40105;52.366;17.000;2022-12-07T09:14:02;21.20;;;7.87;;
54197;SDS011;40105;52.366;17.000;2022-12-07T09:16:27;19.85;;;9.02;;
54197;SDS011;40105;52.366;17.000;2022-12-07T09:18:53;21.50;;;8.80;;
54197;SDS011;40105;52.366;17.000;2022-12-07T09:21:18;19.97;;;6.30;;
54197;SDS011;40105;52.366;17.000;2022-12-07T09:23:43;14.63;;;5.33;;
54197;SDS011;40105;52.366;17.000;2022-12-07T09:26:08;18.50;;;9.40;;
54197;SDS011;40105;52.366;17.000;2022-12-07T09:28:33;31.37;;;10.20;;
54197;SDS011;40105;52.366;17.000;2022-12-07T09:30:59;37.33;;;12.27;;
54197;SDS011;40105;52.366;17.000;2022-12-07T09:33:24;31.30;;;13.75;;
54197;SDS011;40105;52.366;17.000;2022-12-07T09:35:50;34.25;;;14.60;;
54197;SDS011;40105;52.366;17.000;2022-12-07T09:38:16;17.33;;;7.57;;
54197;SDS011;40105;52.366;17.000;2022-12-07T09:40:41;15.07;;;8.63;;
54197;SDS011;40105;52.366;17.000;2022-12-07T09:43:15;16.48;;;7.28;;
54197;SDS011;40105;52.366;17.000;2022-12-07T09:45:41;24.30;;;10.63;;
54197;SDS011;40105;52.366;17.000;2022-12-07T09:48:13;32.88;;;11.13;;
54197;SDS011;40105;52.366;17.000;2022-12-07T09:50:40;17.10;;;6.03;;
54197;SDS011;40105;52.366;17.000;2022-12-07T09:53:09;26.13;;;8.97;;
54197;SDS011;40105;52.366;17.000;2022-12-07T09:55:35;27.45;;;11.00;;
54197;SDS011;40105;52.366;17.000;2022-12-07T09:58:01;20.35;;;10.02;;
54197;SDS011;40105;52.366;17.000;2022-12-07T10:00:26;26.73;;;10.33;;
54197;SDS011;40105;52.366;17.000;2022-12-07T10:05:19;17.85;;;9.30;;
54197;SDS011;40105;52.366;17.000;2022-12-07T10:07:45;22.45;;;8.40;;
54197;SDS011;40105;52.366;17.000;2022-12-07T10:10:15;13.52;;;6.13;;
54197;SDS011;40105;52.366;17.000;2022-12-07T10:15:07;29.88;;;10.75;;
54197;SDS011;40105;52.366;17.000;2022-12-07T10:17:39;20.85;;;10.35;;
54197;SDS011;40105;52.366;17.000;2022-12-07T10:22:36;20.92;;;8.57;;
54197;SDS011;40105;52.366;17.000;2022-12-07T10:25:09;23.10;;;11.18;;
54197;SDS011;40105;52.366;17.000;2022-12-07T10:27:42;18.05;;;8.90;;
54197;SDS011;40105;52.366;17.000;2022-12-07T10:30:07;28.73;;;12.87;;
54197;SDS011;40105;52.366;17.000;2022-12-07T10:32:33;31.20;;;14.02;;
54197;SDS011;40105;52.366;17.000;2022-12-07T10:37:57;15.98;;;5.38;;
54197;SDS011;40105;52.366;17.000;2022-12-07T10:40:27;21.55;;;11.38;;
54197;SDS011;40105;52.366;17.000;2022-12-07T10:45:27;34.80;;;12.23;;
54197;SDS011;40105;52.366;17.000;2022-12-07T10:48:07;24.67;;;9.57;;
54197;SDS011;40105;52.366;17.000;2022-12-07T11:00:55;34.63;;;12.77;;
54197;SDS011;40105;52.366;17.000;2022-12-07T11:08:39;41.65;;;14.25;;
54197;SDS011;40105;52.366;17.000;2022-12-07T11:11:13;42.17;;;17.20;;
54197;SDS011;40105;52.366;17.000;2022-12-07T11:13:42;32.47;;;14.60;;
54197;SDS011;40105;52.366;17.000;2022-12-07T11:29:26;45.90;;;19.80;;
54197;SDS011;40105;52.366;17.000;2022-12-07T11:34:19;52.17;;;20.13;;
54197;SDS011;40105;52.366;17.000;2022-12-07T11:36:51;46.80;;;19.33;;
54197;SDS011;40105;52.366;17.000;2022-12-07T11:39:28;59.70;;;22.25;;
54197;SDS011;40105;52.366;17.000;2022-12-07T11:41:59;49.40;;;19.17;;
54197;SDS011;40105;52.366;17.000;2022-12-07T11:54:59;38.25;;;14.38;;
54197;SDS011;40105;52.366;17.000;2022-12-07T11:57:32;58.83;;;22.20;;
54197;SDS011;40105;52.366;17.000;2022-12-07T12:00:02;75.15;;;26.58;;
54197;SDS011;40105;52.366;17.000;2022-12-07T12:02:31;62.17;;;19.88;;
54197;SDS011;40105;52.366;17.000;2022-12-07T12:07:23;65.70;;;25.08;;
54197;SDS011;40105;52.366;17.000;2022-12-07T12:09:51;57.70;;;22.65;;
54197;SDS011;40105;52.366;17.000;2022-12-07T12:15:01;55.88;;;19.75;;
54197;SDS011;40105;52.366;17.000;2022-12-07T12:22:50;58.00;;;19.88;;
54197;SDS011;40105;52.366;17.000;2022-12-07T12:25:31;62.80;;;25.50;;
54197;SDS011;40105;52.366;17.000;2022-12-07T12:27:57;49.88;;;21.15;;
54197;SDS011;40105;52.366;17.000;2022-12-07T12:30:44;17.73;;;8.43;;
54197;SDS011;40105;52.366;17.000;2022-12-07T12:33:13;33.00;;;14.15;;
54197;SDS011;40105;52.366;17.000;2022-12-07T12:35:40;30.48;;;13.45;;
54197;SDS011;40105;52.366;17.000;2022-12-07T12:40:43;50.50;;;17.23;;
54197;SDS011;40105;52.366;17.000;2022-12-07T12:46:22;35.92;;;14.60;;
54197;SDS011;40105;52.366;17.000;2022-12-07T12:48:37;43.67;;;19.52;;
54197;SDS011;40105;52.366;17.000;2022-12-07T12:51:48;41.30;;;17.23;;
54197;SDS011;40105;52.366;17.000;2022-12-07T12:53:48;38.40;;;15.32;;
54197;SDS011;40105;52.366;17.000;2022-12-07T12:56:19;24.97;;;11.53;;
54197;SDS011;40105;52.366;17.000;2022-12-07T12:58:47;33.15;;;13.68;;
54197;SDS011;40105;52.366;17.000;2022-12-07T13:03:57;43.80;;;14.88;;
54197;SDS011;40105;52.366;17.000;2022-12-07T13:08:51;26.73;;;11.27;;
54197;SDS011;40105;52.366;17.000;2022-12-07T13:11:17;36.10;;;15.75;;
54197;SDS011;40105;52.366;17.000;2022-12-07T13:13:43;24.83;;;11.07;;
54197;SDS011;40105;52.366;17.000;2022-12-07T13:23:36;29.23;;;13.05;;
54197;SDS011;40105;52.366;17.000;2022-12-07T13:28:49;28.50;;;12.85;;
54197;SDS011;40105;52.366;17.000;2022-12-07T13:31:19;17.77;;;10.32;;
54197;SDS011;40105;52.366;17.000;2022-12-07T13:33:46;24.48;;;8.02;;
54197;SDS011;40105;52.366;17.000;2022-12-07T13:36:19;23.63;;;10.88;;
54197;SDS011;40105;52.366;17.000;2022-12-07T13:38:52;18.55;;;7.47;;
54197;SDS011;40105;52.366;17.000;2022-12-07T13:41:18;16.17;;;7.97;;
54197;SDS011;40105;52.366;17.000;2022-12-07T13:43:51;22.67;;;8.30;;
54197;SDS011;40105;52.366;17.000;2022-12-07T13:46:19;25.10;;;9.75;;
54197;SDS011;40105;52.366;17.000;2022-12-07T13:48:46;25.38;;;9.05;;
54197;SDS011;40105;52.366;17.000;2022-12-07T13:51:17;22.42;;;11.13;;
54197;SDS011;40105;52.366;17.000;2022-12-07T13:53:46;32.72;;;12.38;;
54197;SDS011;40105;52.366;17.000;2022-12-07T13:56:12;23.15;;;12.00;;
54197;SDS011;40105;52.366;17.000;2022-12-07T13:58:38;27.60;;;12.73;;
54197;SDS011;40105;52.366;17.000;2022-12-07T14:01:05;26.13;;;11.47;;
54197;SDS011;40105;52.366;17.000;2022-12-07T14:03:34;12.98;;;7.47;;
54197;SDS011;40105;52.366;17.000;2022-12-07T14:06:13;15.40;;;8.30;;
54197;SDS011;40105;52.366;17.000;2022-12-07T14:08:39;17.42;;;9.50;;
54197;SDS011;40105;52.366;17.000;2022-12-07T14:11:05;19.03;;;8.97;;
54197;SDS011;40105;52.366;17.000;2022-12-07T14:13:35;19.10;;;7.90;;
54197;SDS011;40105;52.366;17.000;2022-12-07T14:16:04;12.30;;;4.82;;
54197;SDS011;40105;52.366;17.000;2022-12-07T14:21:30;23.20;;;11.05;;
54197;SDS011;40105;52.366;17.000;2022-12-07T14:26:35;18.50;;;8.55;;
54197;SDS011;40105;52.366;17.000;2022-12-07T14:31:44;18.77;;;7.50;;
54197;SDS011;40105;52.366;17.000;2022-12-07T14:34:11;11.77;;;6.23;;
54197;SDS011;40105;52.366;17.000;2022-12-07T14:36:36;22.08;;;9.52;;
54197;SDS011;40105;52.366;17.000;2022-12-07T14:39:01;12.35;;;6.53;;
54197;SDS011;40105;52.366;17.000;2022-12-07T14:41:27;8.97;;;5.33;;
54197;SDS011;40105;52.366;17.000;2022-12-07T14:44:11;11.98;;;7.35;;
54197;SDS011;40105;52.366;17.000;2022-12-07T14:46:36;17.00;;;7.70;;
54197;SDS011;40105;52.366;17.000;2022-12-07T14:49:01;14.37;;;7.03;;
54197;SDS011;40105;52.366;17.000;2022-12-07T14:51:27;15.10;;;8.97;;
54197;SDS011;40105;52.366;17.000;2022-12-07T14:53:52;22.40;;;9.20;;
54197;SDS011;40105;52.366;17.000;2022-12-07T14:56:18;24.80;;;10.57;;
54197;SDS011;40105;52.366;17.000;2022-12-07T14:58:43;26.57;;;10.93;;
54197;SDS011;40105;52.366;17.000;2022-12-07T15:01:08;22.37;;;10.37;;
54197;SDS011;40105;52.366;17.000;2022-12-07T15:03:33;15.30;;;7.13;;
54197;SDS011;40105;52.366;17.000;2022-12-07T15:05:59;13.68;;;7.93;;
54197;SDS011;40105;52.366;17.000;2022-12-07T15:08:24;16.93;;;6.73;;
54197;SDS011;40105;52.366;17.000;2022-12-07T15:10:50;12.27;;;7.00;;
54197;SDS011;40105;52.366;17.000;2022-12-07T15:13:15;22.15;;;11.15;;
54197;SDS011;40105;52.366;17.000;2022-12-07T15:15:59;14.23;;;7.93;;
54197;SDS011;40105;52.366;17.000;2022-12-07T15:18:24;20.38;;;8.90;;
54197;SDS011;40105;52.366;17.000;2022-12-07T15:20:49;20.00;;;9.33;;
54197;SDS011;40105;52.366;17.000;2022-12-07T15:23:15;16.55;;;7.65;;
54197;SDS011;40105;52.366;17.000;2022-12-07T15:25:40;23.03;;;8.50;;
54197;SDS011;40105;52.366;17.000;2022-12-07T15:28:06;6.53;;;3.65;;
54197;SDS011;40105;52.366;17.000;2022-12-07T15:30:31;11.90;;;6.03;;
54197;SDS011;40105;52.366;17.000;2022-12-07T15:32:56;16.27;;;8.60;;
54197;SDS011;40105;52.366;17.000;2022-12-07T15:35:21;19.90;;;8.07;;
54197;SDS011;40105;52.366;17.000;2022-12-07T15:37:47;17.40;;;7.93;;
54197;SDS011;40105;52.366;17.000;2022-12-07T15:40:12;20.63;;;10.13;;
54197;SDS011;40105;52.366;17.000;2022-12-07T15:42:37;15.20;;;8.25;;
54197;SDS011;40105;52.366;17.000;2022-12-07T15:45:03;24.27;;;9.07;;
54197;SDS011;40105;52.366;17.000;2022-12-07T15:47:30;14.63;;;7.25;;
54197;SDS011;40105;52.366;17.000;2022-12-07T15:49:55;22.52;;;8.77;;
54197;SDS011;40105;52.366;17.000;2022-12-07T15:52:20;20.40;;;7.63;;
54197;SDS011;40105;52.366;17.000;2022-12-07T15:54:45;20.83;;;8.82;;
54197;SDS011;40105;52.366;17.000;2022-12-07T15:57:12;20.25;;;9.38;;
54197;SDS011;40105;52.366;17.000;2022-12-07T15:59:37;17.53;;;9.67;;
54197;SDS011;40105;52.366;17.000;2022-12-07T16:02:02;18.73;;;7.63;;
54197;SDS011;40105;52.366;17.000;2022-12-07T16:04:28;27.10;;;12.13;;
54197;SDS011;40105;52.366;17.000;2022-12-07T16:06:54;14.95;;;7.30;;